createdAt,value
2022-12-04T00:01:37.122Z,101071.72
2022-12-04T00:04:03.811Z,101066.44
2022-12-04T00:06:30.727Z,101076.69
2022-12-04T00:08:57.498Z,101077.56
2022-12-04T00:11:27.756Z,101084.59
2022-12-04T00:13:55.286Z,101073.09
2022-12-04T00:16:25.981Z,101079.91
2022-12-04T00:18:53.464Z,101071.09
2022-12-04T00:21:20.600Z,101070.94
2022-12-04T00:23:47.940Z,101073.47
2022-12-04T00:26:17.423Z,101071.56
2022-12-04T00:28:44.384Z,101070.66
2022-12-04T00:31:14.259Z,101076.69
2022-12-04T00:33:41.478Z,101074.09
2022-12-04T00:36:11.027Z,101075.06
2022-12-04T00:38:38.567Z,101063.84
2022-12-04T00:41:05.304Z,101065.53
2022-12-04T00:43:32.039Z,101075.25
2022-12-04T00:45:59.175Z,101068.41
2022-12-04T00:48:26.176Z,101057.28
2022-12-04T00:50:54.152Z,101069.50
2022-12-04T00:53:21.767Z,101068.78
2022-12-04T00:55:48.426Z,101061.13
2022-12-04T00:58:15.026Z,101063.66
2022-12-04T01:00:42.107Z,101067.88
2022-12-04T01:03:09.425Z,101065.19
2022-12-04T01:05:45.459Z,101069.56
2022-12-04T01:08:12.815Z,101066.97
2022-12-04T01:10:41.981Z,101060.16
2022-12-04T01:13:09.131Z,101064.72
2022-12-04T01:15:43.991Z,101054.47
2022-12-04T01:18:11.938Z,101064.97
2022-12-04T01:20:38.471Z,101059.75
2022-12-04T01:23:05.126Z,101057.97
2022-12-04T01:25:32.006Z,101063.09
2022-12-04T01:27:58.596Z,101047.47
2022-12-04T01:30:25.097Z,101053.47
2022-12-04T01:32:51.619Z,101054.22
2022-12-04T01:35:18.372Z,101058.38
2022-12-04T01:37:44.913Z,101053.16
2022-12-04T01:40:16.882Z,101049.72
2022-12-04T01:42:43.422Z,101056.91
2022-12-04T01:45:36.814Z,101042.06
2022-12-04T01:48:19.459Z,101039.47
2022-12-04T01:50:48.475Z,101043.97
2022-12-04T01:53:15.251Z,101037.06
2022-12-04T01:55:43.170Z,101037.94
2022-12-04T01:58:10.510Z,101040.44
2022-12-04T02:00:37.109Z,101031.75
2022-12-04T02:03:03.952Z,101032.63
2022-12-04T02:05:30.854Z,101043.16
2022-12-04T02:08:01.200Z,101036.41
2022-12-04T02:10:42.686Z,101039.00
2022-12-04T02:13:37.007Z,101041.53
2022-12-04T02:16:24.801Z,101046.66
2022-12-04T02:19:03.014Z,101045.03
2022-12-04T02:21:43.292Z,101045.03
2022-12-04T02:24:12.719Z,101040.72
2022-12-04T02:27:01.962Z,101039.13
2022-12-04T02:29:45.910Z,101040.00
2022-12-04T02:32:24.471Z,101034.78
2022-12-04T02:35:06.371Z,101036.41
2022-12-04T02:37:40.662Z,101038.84
2022-12-04T02:40:07.424Z,101027.63
2022-12-04T02:42:42.926Z,101024.19
2022-12-04T02:45:17.778Z,101025.09
2022-12-04T02:47:46.284Z,101026.88
2022-12-04T02:50:16.870Z,101024.34
2022-12-04T02:52:48.315Z,101021.88
2022-12-04T02:55:20.979Z,101034.00
2022-12-04T02:57:52.524Z,101032.16
2022-12-04T03:00:19.988Z,101033.00
2022-12-04T03:02:59.150Z,101031.38
2022-12-04T03:05:47.758Z,101027.16
2022-12-04T03:08:19.201Z,101025.34
2022-12-04T03:10:51.213Z,101026.34
2022-12-04T03:13:29.492Z,101033.53
2022-12-04T03:16:06.096Z,101020.72
2022-12-04T03:18:39.618Z,101017.41
2022-12-04T03:21:15.581Z,101024.53
2022-12-04T03:23:50.661Z,101025.59
2022-12-04T03:26:28.465Z,101021.16
2022-12-04T03:29:04.777Z,101017.69
2022-12-04T03:31:49.096Z,101013.25
2022-12-04T03:34:25.777Z,101012.56
2022-12-04T03:36:57.330Z,101012.72
2022-12-04T03:39:34.965Z,101010.25
2022-12-04T03:42:21.706Z,101003.44
2022-12-04T03:45:11.334Z,101000.81
2022-12-04T03:47:46.014Z,100994.97
2022-12-04T03:50:35.125Z,101002.16
2022-12-04T03:53:17.712Z,101001.41
2022-12-04T03:55:54.347Z,101012.03
2022-12-04T03:58:28.175Z,101014.78
2022-12-04T04:00:56.767Z,101009.66
2022-12-04T04:03:29.709Z,101018.44
2022-12-04T04:06:02.664Z,101016.69
2022-12-04T04:08:34.917Z,101012.44
2022-12-04T04:11:17.247Z,101008.03
2022-12-04T04:14:11.516Z,101008.03
2022-12-04T04:17:03.017Z,101007.13
2022-12-04T04:19:53.783Z,101004.63
2022-12-04T04:22:41.597Z,100997.59
2022-12-04T04:25:13.345Z,101001.75
2022-12-04T04:27:39.984Z,101004.28
2022-12-04T04:30:09.161Z,101006.06
2022-12-04T04:32:44.008Z,101006.06
2022-12-04T04:35:25.037Z,101006.06
2022-12-04T04:38:01.732Z,101006.06
2022-12-04T04:40:37.253Z,101004.28
2022-12-04T04:43:11.334Z,101012.19
2022-12-04T04:45:48.399Z,101009.66
2022-12-04T04:48:31.683Z,101010.56
2022-12-04T04:51:00.155Z,101003.72
2022-12-04T04:53:34.995Z,101011.63
2022-12-04T04:56:02.003Z,101011.69
2022-12-04T04:58:28.591Z,101002.97
2022-12-04T05:01:03.469Z,100994.34
2022-12-04T05:03:31.079Z,100990.91
2022-12-04T05:05:57.961Z,100999.72
2022-12-04T05:08:24.738Z,101011.97
2022-12-04T05:10:51.347Z,101012.94
2022-12-04T05:13:18.473Z,101014.72
2022-12-04T05:15:45.668Z,101022.69
2022-12-04T05:18:12.259Z,101015.84
2022-12-04T05:20:40.074Z,101020.28
2022-12-04T05:23:07.442Z,101025.56
2022-12-04T05:25:33.988Z,101030.78
2022-12-04T05:28:00.556Z,101026.47
2022-12-04T05:30:27.182Z,101021.25
2022-12-04T05:32:53.725Z,101014.31
2022-12-04T05:35:20.277Z,101017.81
2022-12-04T05:37:47.484Z,101016.03
2022-12-04T05:40:14.211Z,101009.00
2022-12-04T05:42:40.920Z,101008.22
2022-12-04T05:45:08.086Z,100999.56
2022-12-04T05:47:42.319Z,100995.97
2022-12-04T05:50:10.518Z,101001.75
2022-12-04T05:52:37.148Z,101000.84
2022-12-04T05:55:04.102Z,101010.56
2022-12-04T05:57:30.852Z,101008.09
2022-12-04T05:59:57.667Z,101003.81
2022-12-04T06:02:24.530Z,101007.38
2022-12-04T06:04:51.091Z,101002.19
2022-12-04T06:07:17.563Z,100999.56
2022-12-04T06:09:44.200Z,101005.78
2022-12-04T06:12:11.022Z,101004.13
2022-12-04T06:14:39.774Z,101017.19
2022-12-04T06:17:07.339Z,101011.13
2022-12-04T06:19:34.035Z,101025.16
2022-12-04T06:22:00.589Z,101029.59
2022-12-04T06:24:27.223Z,101024.66
2022-12-04T06:29:45.886Z,101024.94
2022-12-04T06:32:16.496Z,101018.88
2022-12-04T06:34:53.913Z,101024.09
2022-12-04T06:37:22.472Z,101026.78
2022-12-04T06:39:49.301Z,101033.00
2022-12-04T06:42:16.429Z,101032.19
2022-12-04T06:44:42.931Z,101039.25
2022-12-04T06:47:09.630Z,101035.75
2022-12-04T06:49:36.322Z,101042.78
2022-12-04T06:52:03.373Z,101040.97
2022-12-04T06:54:29.861Z,101038.22
2022-12-04T06:56:56.346Z,101038.97
2022-12-04T06:59:22.899Z,101036.25
2022-12-04T07:01:49.659Z,101040.47
2022-12-04T07:04:16.288Z,101038.53
2022-12-04T07:06:42.850Z,101037.41
2022-12-04T07:09:17.791Z,101040.66
2022-12-04T07:11:45.491Z,101037.78
2022-12-04T07:14:13.216Z,101048.97
2022-12-04T07:16:42.121Z,101045.38
2022-12-04T07:19:13.890Z,101045.38
2022-12-04T07:21:41.621Z,101058.41
2022-12-04T07:24:15.376Z,101061.03
2022-12-04T07:26:41.869Z,101053.22
2022-12-04T07:29:10.137Z,101054.00
2022-12-04T07:31:36.805Z,101047.81
2022-12-04T07:34:03.477Z,101049.34
2022-12-04T07:36:29.986Z,101047.56
2022-12-04T07:38:57.117Z,101056.09
2022-12-04T07:41:24.085Z,101049.75
2022-12-04T07:43:50.696Z,101047.06
2022-12-04T07:46:22.967Z,101054.06
2022-12-04T07:48:49.912Z,101043.63
2022-12-04T07:51:21.812Z,101045.25
2022-12-04T07:53:50.805Z,101044.38
2022-12-04T07:56:18.076Z,101043.53
2022-12-04T07:58:44.699Z,101036.72
2022-12-04T08:01:14.143Z,101042.75
2022-12-04T08:03:47.202Z,101037.53
2022-12-04T08:06:14.738Z,101036.63
2022-12-04T08:08:41.338Z,101027.81
2022-12-04T08:11:09.539Z,101032.06
2022-12-04T08:13:36.566Z,101030.19
2022-12-04T08:16:08.534Z,101031.81
2022-12-04T08:18:35.600Z,101024.72
2022-12-04T08:21:07.858Z,101028.03
2022-12-04T08:23:35.148Z,101038.31
2022-12-04T08:26:02.799Z,101038.31
2022-12-04T08:28:29.826Z,101051.50
2022-12-04T08:31:02.524Z,101049.09
2022-12-04T08:33:29.099Z,101052.66
2022-12-04T08:35:55.616Z,101046.63
2022-12-04T08:38:22.150Z,101051.13
2022-12-04T08:40:48.671Z,101042.41
2022-12-04T08:43:15.209Z,101040.63
2022-12-04T08:45:41.745Z,101047.63
2022-12-04T08:48:08.327Z,101048.69
2022-12-04T08:50:34.827Z,101040.16
2022-12-04T08:53:01.312Z,101038.69
2022-12-04T08:55:27.822Z,101042.44
2022-12-04T08:57:54.814Z,101052.06
2022-12-04T09:00:21.494Z,101049.47
2022-12-04T09:02:51.054Z,101049.53
2022-12-04T09:05:17.906Z,101055.63
2022-12-04T09:07:44.584Z,101056.53
2022-12-04T09:10:11.938Z,101047.81
2022-12-04T09:12:38.507Z,101055.75
2022-12-04T09:15:05.551Z,101052.38
2022-12-04T09:17:32.214Z,101048.97
2022-12-04T09:20:01.168Z,101045.53
2022-12-04T09:22:40.548Z,101042.13
2022-12-04T09:25:14.831Z,101050.84
2022-12-04T09:27:41.683Z,101042.13
2022-12-04T09:30:10.200Z,101042.28
2022-12-04T09:32:37.118Z,101037.97
2022-12-04T09:35:05.817Z,101039.75
2022-12-04T09:37:33.405Z,101037.16
2022-12-04T09:39:59.951Z,101032.84
2022-12-04T09:42:49.814Z,101027.53
2022-12-04T09:45:22.136Z,101027.63
2022-12-04T09:47:51.847Z,101028.59
2022-12-04T09:50:35.798Z,101025.16
2022-12-04T09:53:06.699Z,101026.06
2022-12-04T09:55:38.827Z,101032.19
2022-12-04T09:58:10.728Z,101031.38
2022-12-04T10:00:41.521Z,101027.06
2022-12-04T10:03:15.110Z,101027.28
2022-12-04T10:06:00.770Z,101024.75
2022-12-04T10:08:35.259Z,101027.63
2022-12-04T10:11:16.918Z,101022.56
2022-12-04T10:13:55.607Z,101018.16
2022-12-04T10:16:28.023Z,101017.31
2022-12-04T10:19:12.725Z,101013.81
2022-12-04T10:21:53.087Z,101022.56
2022-12-04T10:24:43.171Z,101021.81
2022-12-04T10:27:18.146Z,101022.81
2022-12-04T10:29:49.401Z,101019.28
2022-12-04T10:32:23.786Z,101015.84
2022-12-04T10:34:54.532Z,101015.84
2022-12-04T10:37:22.924Z,101018.31
2022-12-04T10:39:58.249Z,101015.72
2022-12-04T10:42:46.917Z,101022.88
2022-12-04T10:45:13.668Z,101016.75
2022-12-04T10:47:48.750Z,101017.75
2022-12-04T10:50:19.487Z,101014.28
2022-12-04T10:52:46.120Z,101010.81
2022-12-04T10:55:13.671Z,101009.19
2022-12-04T10:57:45.420Z,100998.75
2022-12-04T11:00:32.678Z,101004.91
2022-12-04T11:03:02.008Z,100984.88
2022-12-04T11:05:33.165Z,100988.31
2022-12-04T11:08:03.207Z,100984.94
2022-12-04T11:10:39.357Z,100985.00
2022-12-04T11:13:17.571Z,100980.03
2022-12-04T11:15:46.478Z,100971.56
2022-12-04T11:18:28.042Z,100976.69
2022-12-04T11:21:14.569Z,100960.88
2022-12-04T11:23:49.939Z,100965.94
2022-12-04T11:26:29.263Z,100965.94
2022-12-04T11:28:58.630Z,100964.31
2022-12-04T11:31:25.752Z,100960.22
2022-12-04T11:33:57.564Z,100955.22
2022-12-04T11:36:40.511Z,100958.06
2022-12-04T11:39:13.298Z,100958.22
2022-12-04T11:41:40.235Z,100957.41
2022-12-04T11:44:21.851Z,100958.41
2022-12-04T11:46:53.799Z,100951.50
2022-12-04T11:49:23.004Z,100959.50
2022-12-04T11:51:53.648Z,100963.25
2022-12-04T11:54:38.476Z,100953.78
2022-12-04T11:57:30.090Z,100955.72
2022-12-04T12:00:11.167Z,100961.16
2022-12-04T12:02:51.006Z,100949.97
2022-12-04T12:05:20.681Z,100950.97
2022-12-04T12:08:31.943Z,100945.72
2022-12-04T12:11:18.777Z,100942.44
2022-12-04T12:14:02.672Z,100949.66
2022-12-04T12:17:03.309Z,100956.63
2022-12-04T12:20:00.319Z,100951.69
2022-12-04T12:22:43.429Z,100956.19
2022-12-04T12:25:33.247Z,100952.84
2022-12-04T12:28:05.520Z,100957.28
2022-12-04T12:31:12.638Z,100950.50
2022-12-04T12:33:51.967Z,100946.97
2022-12-04T12:36:21.747Z,100939.13
2022-12-04T12:38:58.763Z,100938.28
2022-12-04T12:41:32.249Z,100941.84
2022-12-04T12:44:11.186Z,100940.19
2022-12-04T12:46:48.929Z,100936.75
2022-12-04T12:49:47.047Z,100933.09
2022-12-04T12:52:45.748Z,100921.81
2022-12-04T12:55:24.613Z,100927.22
2022-12-04T12:58:15.359Z,100931.53
2022-12-04T13:00:58.317Z,100918.22
2022-12-04T13:03:54.936Z,100912.06
2022-12-04T13:06:29.333Z,100916.31
2022-12-04T13:09:16.782Z,100921.47
2022-12-04T13:11:49.270Z,100918.75
2022-12-04T13:14:16.918Z,100915.94
2022-12-04T13:16:46.780Z,100915.94
2022-12-04T13:19:18.708Z,100913.25
2022-12-04T13:21:55.579Z,100909.75
2022-12-04T13:24:59.575Z,100903.47
2022-12-04T13:27:43.253Z,100899.00
2022-12-04T13:30:21.462Z,100890.19
2022-12-04T13:33:15.697Z,100905.84
2022-12-04T13:35:58.645Z,100905.00
2022-12-04T13:39:02.579Z,100895.41
2022-12-04T13:41:35.324Z,100894.53
2022-12-04T13:44:07.046Z,100891.69
2022-12-04T13:46:36.302Z,100901.22
2022-12-04T13:49:22.816Z,100893.31
2022-12-04T13:51:49.637Z,100885.50
2022-12-04T13:54:16.120Z,100894.38
2022-12-04T13:56:48.759Z,100897.22
2022-12-04T13:59:27.426Z,100894.75
2022-12-04T14:01:57.284Z,100896.63
2022-12-04T14:04:26.671Z,100890.50
2022-12-04T14:06:56.966Z,100880.03
2022-12-04T14:09:38.320Z,100874.81
2022-12-04T14:12:08.118Z,100871.41
2022-12-04T14:14:52.344Z,100868.78
2022-12-04T14:17:25.666Z,100866.16
2022-12-04T14:19:55.211Z,100861.81
2022-12-04T14:22:29.775Z,100860.03
2022-12-04T14:25:07.095Z,100866.00
2022-12-04T14:27:42.366Z,100859.00
2022-12-04T14:30:17.609Z,100865.03
2022-12-04T14:32:46.715Z,100866.78
2022-12-04T14:35:16.164Z,100862.41
2022-12-04T14:37:52.521Z,100861.56
2022-12-04T14:40:27.254Z,100864.06
2022-12-04T14:42:54.796Z,100865.88
2022-12-04T14:45:41.912Z,100849.28
2022-12-04T14:48:24.529Z,100860.66
2022-12-04T14:50:58.996Z,100870.19
2022-12-04T14:53:35.000Z,100867.66
2022-12-04T14:56:35.502Z,100868.56
2022-12-04T14:59:13.165Z,100861.63
2022-12-04T15:01:39.864Z,100852.03
2022-12-04T15:04:32.791Z,100856.59
2022-12-04T15:07:00.929Z,100856.53
2022-12-04T15:09:46.977Z,100848.75
2022-12-04T15:12:34.087Z,100857.50
2022-12-04T15:15:19.520Z,100849.72
2022-12-04T15:18:02.865Z,100851.44
2022-12-04T15:20:39.504Z,100854.94
2022-12-04T15:23:06.455Z,100866.25
2022-12-04T15:25:49.023Z,100872.25
2022-12-04T15:28:24.021Z,100868.63
2022-12-04T15:30:54.005Z,100870.25
2022-12-04T15:33:24.594Z,100862.28
2022-12-04T15:35:55.952Z,100866.59
2022-12-04T15:38:23.174Z,100865.81
2022-12-04T15:40:58.937Z,100869.28
2022-12-04T15:43:38.939Z,100865.81
2022-12-04T15:46:13.884Z,100874.69
2022-12-04T15:48:43.885Z,100864.22
2022-12-04T15:51:16.890Z,100864.22
2022-12-04T15:53:45.848Z,100862.59
2022-12-04T15:56:21.524Z,100865.19
2022-12-04T15:59:02.220Z,100873.91
2022-12-04T16:01:38.529Z,100874.00
2022-12-04T16:04:05.234Z,100873.31
2022-12-04T16:06:33.406Z,100875.13
2022-12-04T16:09:12.243Z,100878.59
2022-12-04T16:11:40.117Z,100883.75
2022-12-04T16:14:12.461Z,100882.88
2022-12-04T16:16:43.848Z,100887.16
2022-12-04T16:19:46.340Z,100884.59
2022-12-04T16:22:20.649Z,100893.25
2022-12-04T16:24:47.815Z,100890.63
2022-12-04T16:27:20.287Z,100892.50
2022-12-04T16:29:47.354Z,100883.75
2022-12-04T16:32:17.151Z,100881.97
2022-12-04T16:34:43.959Z,100888.97
2022-12-04T16:37:18.321Z,100897.78
2022-12-04T16:39:45.271Z,100889.16
2022-12-04T16:42:18.616Z,100887.50
2022-12-04T16:44:45.546Z,100884.00
2022-12-04T16:47:13.149Z,100886.53
2022-12-04T16:49:40.942Z,100892.56
2022-12-04T16:52:07.735Z,100885.41
2022-12-04T16:54:34.536Z,100891.22
2022-12-04T16:57:01.223Z,100897.28
2022-12-04T16:59:27.786Z,100886.69
2022-12-04T17:01:54.771Z,100893.56
2022-12-04T17:04:21.774Z,100898.72
2022-12-04T17:06:48.489Z,100893.31
2022-12-04T17:09:15.666Z,100907.22
2022-12-04T17:11:42.668Z,100898.41
2022-12-04T17:14:09.591Z,100894.03
2022-12-04T17:16:38.684Z,100891.41
2022-12-04T17:19:05.372Z,100892.22
2022-12-04T17:21:32.286Z,100879.00
2022-12-04T17:23:58.796Z,100885.03
2022-12-04T17:26:25.891Z,100878.03
2022-12-04T17:28:52.953Z,100886.69
2022-12-04T17:31:23.133Z,100878.72
2022-12-04T17:33:50.681Z,100893.47
2022-12-04T17:36:21.368Z,100898.63
2022-12-04T17:38:48.264Z,100890.66
2022-12-04T17:41:15.872Z,100895.72
2022-12-04T17:43:43.723Z,100900.78
2022-12-04T17:46:15.320Z,100888.56
2022-12-04T17:48:42.707Z,100887.66
2022-12-04T17:51:15.119Z,100892.72
2022-12-04T17:53:42.256Z,100889.28
2022-12-04T17:56:17.156Z,100900.63
2022-12-04T17:58:44.619Z,100895.56
2022-12-04T18:01:23.189Z,100900.03
2022-12-04T18:03:52.205Z,100903.63
2022-12-04T18:06:27.827Z,100899.28
2022-12-04T18:08:54.990Z,100896.66
2022-12-04T18:11:23.980Z,100889.75
2022-12-04T18:13:55.834Z,100892.44
2022-12-04T18:16:22.513Z,100892.59
2022-12-04T18:18:50.706Z,100885.63
2022-12-04T18:21:17.470Z,100891.75
2022-12-04T18:23:46.545Z,100882.94
2022-12-04T18:26:22.379Z,100879.28
2022-12-04T18:28:50.101Z,100874.91
2022-12-04T18:31:19.582Z,100887.13
2022-12-04T18:33:46.794Z,100884.44
2022-12-04T18:36:16.467Z,100881.78
2022-12-04T18:38:43.779Z,100882.50
2022-12-04T18:41:12.486Z,100881.63
2022-12-04T18:43:43.988Z,100882.50
2022-12-04T18:46:15.936Z,100880.78
2022-12-04T18:48:43.897Z,100879.88
2022-12-04T18:51:14.433Z,100884.25
2022-12-04T18:53:41.032Z,100876.47
2022-12-04T18:56:07.637Z,100879.22
2022-12-04T18:58:34.411Z,100891.44
2022-12-04T19:01:09.904Z,100887.97
2022-12-04T19:03:36.587Z,100883.63
2022-12-04T19:06:03.615Z,100891.56
2022-12-04T19:08:34.221Z,100886.34
2022-12-04T19:11:14.105Z,100884.75
2022-12-04T19:13:41.719Z,100881.31
2022-12-04T19:16:13.287Z,100889.41
2022-12-04T19:18:40.307Z,100887.81
2022-12-04T19:21:08.126Z,100892.22
2022-12-04T19:23:35.101Z,100882.66
2022-12-04T19:26:03.388Z,100879.22
2022-12-04T19:28:30.386Z,100872.28
2022-12-04T19:30:57.460Z,100874.91
2022-12-04T19:33:24.875Z,100877.50
2022-12-04T19:36:03.159Z,100870.53
2022-12-04T19:38:31.139Z,100871.38
2022-12-04T19:41:10.286Z,100867.97
2022-12-04T19:43:42.052Z,100875.75
2022-12-04T19:46:11.014Z,100873.03
2022-12-04T19:48:37.917Z,100863.47
2022-12-04T19:51:10.541Z,100873.94
2022-12-04T19:53:40.940Z,100879.16
2022-12-04T19:56:14.230Z,100881.84
2022-12-04T19:58:41.455Z,100879.22
2022-12-04T20:01:11.183Z,100883.72
2022-12-04T20:03:37.814Z,100895.19
2022-12-04T20:06:25.952Z,100887.56
2022-12-04T20:08:58.210Z,100889.38
2022-12-04T20:11:25.662Z,100877.13
2022-12-04T20:13:55.508Z,100884.97
2022-12-04T20:16:24.035Z,100873.63
2022-12-04T20:18:51.166Z,100877.97
2022-12-04T20:21:17.855Z,100870.97
2022-12-04T20:23:49.293Z,100876.19
2022-12-04T20:26:22.087Z,100867.50
2022-12-04T20:28:49.064Z,100871.81
2022-12-04T20:31:20.479Z,100878.78
2022-12-04T20:33:49.443Z,100863.13
2022-12-04T20:36:18.787Z,100866.66
2022-12-04T20:38:45.832Z,100872.88
2022-12-04T20:41:16.037Z,100874.75
2022-12-04T20:43:43.440Z,100864.22
2022-12-04T20:46:33.496Z,100866.00
2022-12-04T20:49:01.853Z,100871.22
2022-12-04T20:51:31.279Z,100865.19
2022-12-04T20:53:59.671Z,100869.59
2022-12-04T20:56:31.240Z,100869.59
2022-12-04T20:58:59.243Z,100863.56
2022-12-04T21:01:26.555Z,100873.03
2022-12-04T21:03:53.551Z,100865.03
2022-12-04T21:06:23.907Z,100858.84
2022-12-04T21:08:54.052Z,100861.31
2022-12-04T21:11:34.466Z,100859.59
2022-12-04T21:14:22.028Z,100849.91
2022-12-04T21:16:48.802Z,100847.28
2022-12-04T21:19:18.196Z,100839.44
2022-12-04T21:21:45.408Z,100848.13
2022-12-04T21:24:15.752Z,100845.56
2022-12-04T21:26:42.432Z,100843.88
2022-12-04T21:29:09.507Z,100840.34
2022-12-04T21:31:37.201Z,100845.63
2022-12-04T21:34:06.200Z,100833.47
2022-12-04T21:36:36.062Z,100829.16
2022-12-04T21:39:04.668Z,100837.06
2022-12-04T21:42:06.559Z,100826.75
2022-12-04T21:44:33.170Z,100829.59
2022-12-04T21:46:59.940Z,100824.50
2022-12-04T21:49:26.962Z,100833.16
2022-12-04T21:51:58.033Z,100823.53
2022-12-04T21:54:26.388Z,100823.47
2022-12-04T21:56:53.014Z,100827.78
2022-12-04T21:59:19.774Z,100814.72
2022-12-04T22:01:46.525Z,100813.81
2022-12-04T22:04:13.188Z,100815.56
2022-12-04T22:06:39.857Z,100819.03
2022-12-04T22:09:08.391Z,100814.78
2022-12-04T22:11:35.644Z,100814.00
2022-12-04T22:14:02.567Z,100824.50
2022-12-04T22:16:30.977Z,100824.50
2022-12-04T22:18:59.371Z,100820.19
2022-12-04T22:21:27.380Z,100834.06
2022-12-04T22:23:58.115Z,100834.97
2022-12-04T22:26:25.256Z,100824.50
2022-12-04T22:28:52.283Z,100823.66
2022-12-04T22:31:21.543Z,100825.31
2022-12-04T22:33:50.844Z,100820.00
2022-12-04T22:36:27.553Z,100820.00
2022-12-04T22:39:09.439Z,100828.81
2022-12-04T22:41:37.479Z,100833.31
2022-12-04T22:44:04.754Z,100822.78
2022-12-04T22:46:31.886Z,100826.28
2022-12-04T22:48:59.059Z,100821.06
2022-12-04T22:51:27.310Z,100817.56
2022-12-04T22:53:57.480Z,100811.50
2022-12-04T22:56:32.106Z,100807.94
2022-12-04T22:58:59.891Z,100807.03
2022-12-04T23:01:32.193Z,100814.06
2022-12-04T23:03:59.648Z,100809.81
2022-12-04T23:06:28.428Z,100805.53
2022-12-04T23:08:57.399Z,100818.66
2022-12-04T23:11:25.022Z,100814.34
2022-12-04T23:13:57.716Z,100810.91
2022-12-04T23:16:25.266Z,100813.56
2022-12-04T23:18:52.365Z,100814.34
2022-12-04T23:21:21.420Z,100813.50
2022-12-04T23:23:49.587Z,100820.63
2022-12-04T23:26:19.295Z,100824.94
2022-12-04T23:28:46.561Z,100826.72
2022-12-04T23:31:13.676Z,100812.84
2022-12-04T23:33:41.710Z,100823.41
2022-12-04T23:36:10.470Z,100819.03
2022-12-04T23:38:38.755Z,100819.97
2022-12-04T23:41:16.459Z,100811.19
2022-12-04T23:43:43.640Z,100821.78
2022-12-04T23:46:12.019Z,100811.38
2022-12-04T23:48:40.120Z,100816.00
2022-12-04T23:51:07.529Z,100814.28
2022-12-04T23:53:34.384Z,100806.53
2022-12-04T23:56:06.411Z,100799.59
2022-12-04T23:58:33.811Z,100801.28
